createdAt,value
2017-09-22T00:00:11.914Z,19.23
2017-09-22T00:00:39.954Z,19.19
2017-09-22T00:01:07.984Z,19.15
2017-09-22T00:01:36.109Z,19.16
2017-09-22T00:02:04.017Z,19.16
2017-09-22T00:02:32.029Z,19.1
2017-09-22T00:02:59.845Z,19.13
2017-09-22T00:03:27.967Z,19.19
2017-09-22T00:03:55.774Z,19.17
2017-09-22T00:04:23.826Z,19.12
2017-09-22T00:04:51.870Z,19.13
2017-09-22T00:05:19.733Z,19.15
2017-09-22T00:05:47.888Z,19.12
2017-09-22T00:06:15.780Z,19.1
2017-09-22T00:06:44.033Z,19.16
2017-09-22T00:07:12.176Z,19.09
2017-09-22T00:07:39.981Z,19.09
2017-09-22T00:08:07.926Z,19.09
2017-09-22T00:08:35.934Z,19.09
2017-09-22T00:09:03.868Z,19.07
2017-09-22T00:09:32.018Z,19.06
2017-09-22T00:09:59.858Z,19.06
2017-09-22T00:10:27.993Z,19.12
2017-09-22T00:10:56.107Z,19
2017-09-22T00:11:24.042Z,19.02
2017-09-22T00:11:52.262Z,19.06
2017-09-22T00:12:20.412Z,18.97
2017-09-22T00:12:48.257Z,19.05
2017-09-22T00:13:16.187Z,18.87
2017-09-22T00:13:44.207Z,18.87
2017-09-22T00:14:12.225Z,18.82
2017-09-22T00:14:40.143Z,18.93
2017-09-22T00:15:08.211Z,18.89
2017-09-22T00:15:36.132Z,18.93
2017-09-22T00:16:04.163Z,18.99
2017-09-22T00:16:32.315Z,18.97
2017-09-22T00:17:00.263Z,19.06
2017-09-22T00:17:28.311Z,19.02
2017-09-22T00:17:56.432Z,19.02
2017-09-22T00:18:24.477Z,18.99
2017-09-22T00:18:52.423Z,18.97
2017-09-22T00:19:20.501Z,18.97
2017-09-22T00:19:48.781Z,19.02
2017-09-22T00:20:16.897Z,19.02
2017-09-22T00:20:45.028Z,18.99
2017-09-22T00:21:13.042Z,18.94
2017-09-22T00:21:41.274Z,18.91
2017-09-22T00:22:09.401Z,18.87
2017-09-22T00:22:37.371Z,18.94
2017-09-22T00:23:05.231Z,18.93
2017-09-22T00:23:33.158Z,18.94
2017-09-22T00:24:00.981Z,18.82
2017-09-22T00:24:28.941Z,18.82
2017-09-22T00:24:57.082Z,18.86
2017-09-22T00:25:25.104Z,18.84
2017-09-22T00:25:53.124Z,18.76
2017-09-22T00:26:21.144Z,18.82
2017-09-22T00:26:49.367Z,18.84
2017-09-22T00:27:17.413Z,18.82
2017-09-22T00:27:45.458Z,18.89
2017-09-22T00:28:13.508Z,18.82
2017-09-22T00:28:41.549Z,18.82
2017-09-22T00:29:09.481Z,18.86
2017-09-22T00:29:37.512Z,18.87
2017-09-22T00:30:05.664Z,18.81
2017-09-22T00:30:33.696Z,18.86
2017-09-22T00:31:01.634Z,18.89
2017-09-22T00:31:29.454Z,18.87
2017-09-22T00:31:57.493Z,18.76
2017-09-22T00:32:25.410Z,18.84
2017-09-22T00:32:53.527Z,18.78
2017-09-22T00:33:21.547Z,18.78
2017-09-22T00:33:49.458Z,18.74
2017-09-22T00:34:17.292Z,18.74
2017-09-22T00:34:45.023Z,18.68
2017-09-22T00:35:13.067Z,18.68
2017-09-22T00:35:41.101Z,18.74
2017-09-22T00:36:08.822Z,18.69
2017-09-22T00:36:36.842Z,18.74
2017-09-22T00:37:04.970Z,18.76
2017-09-22T00:37:33.041Z,18.74
2017-09-22T00:38:01.085Z,18.75
2017-09-22T00:38:28.936Z,18.74
2017-09-22T00:38:56.970Z,18.72
2017-09-22T00:39:25.018Z,18.82
2017-09-22T00:39:52.980Z,18.75
2017-09-22T00:40:21.273Z,18.74
2017-09-22T00:40:49.266Z,18.79
2017-09-22T00:41:17.399Z,18.79
2017-09-22T00:41:45.639Z,18.81
2017-09-22T00:42:13.684Z,18.81
2017-09-22T00:42:41.607Z,18.76
2017-09-22T00:43:09.611Z,18.81
2017-09-22T00:43:37.613Z,18.79
2017-09-22T00:44:05.838Z,18.78
2017-09-22T00:44:33.691Z,18.75
2017-09-22T00:45:01.721Z,18.72
2017-09-22T00:45:29.778Z,18.71
2017-09-22T00:45:57.920Z,18.76
2017-09-22T00:46:25.963Z,18.72
2017-09-22T00:46:54.091Z,18.74
2017-09-22T00:47:21.945Z,18.72
2017-09-22T00:47:49.780Z,18.79
2017-09-22T00:48:17.804Z,18.72
2017-09-22T00:48:45.738Z,18.68
2017-09-22T00:49:13.804Z,18.72
2017-09-22T00:49:41.843Z,18.72
2017-09-22T00:50:09.687Z,18.72
2017-09-22T00:50:37.705Z,18.69
2017-09-22T00:51:05.825Z,18.69
2017-09-22T00:51:33.644Z,18.74
2017-09-22T00:52:01.654Z,18.75
2017-09-22T00:52:29.689Z,18.72
2017-09-22T00:52:58.055Z,18.72
2017-09-22T00:53:26.354Z,18.72
2017-09-22T00:53:54.590Z,18.75
2017-09-22T00:54:22.706Z,18.72
2017-09-22T00:54:51.005Z,18.74
2017-09-22T00:55:19.110Z,18.74
2017-09-22T00:55:47.242Z,18.72
2017-09-22T00:56:15.345Z,18.72
2017-09-22T00:56:43.391Z,18.74
2017-09-22T00:57:11.978Z,18.75
2017-09-22T00:57:39.915Z,18.71
2017-09-22T00:58:07.834Z,18.71
2017-09-22T00:58:35.467Z,18.74
2017-09-22T00:59:03.373Z,18.75
2017-09-22T00:59:31.439Z,18.72
2017-09-22T00:59:59.500Z,18.66
2017-09-22T01:00:27.233Z,18.68
2017-09-22T01:00:55.288Z,18.66
2017-09-22T01:01:23.217Z,18.68
2017-09-22T01:01:51.146Z,18.66
2017-09-22T01:02:19.358Z,18.68
2017-09-22T01:02:47.414Z,18.68
2017-09-22T01:03:15.440Z,18.69
2017-09-22T01:03:43.482Z,18.69
2017-09-22T01:04:11.604Z,18.63
2017-09-22T01:04:39.634Z,18.65
2017-09-22T01:05:07.787Z,18.59
2017-09-22T01:05:35.928Z,18.65
2017-09-22T01:06:04.069Z,18.61
2017-09-22T01:06:32.016Z,18.6
2017-09-22T01:07:00.067Z,18.65
2017-09-22T01:07:28.110Z,18.5
2017-09-22T01:07:55.936Z,18.54
2017-09-22T01:08:23.991Z,18.59
2017-09-22T01:08:51.983Z,18.5
2017-09-22T01:09:19.954Z,18.61
2017-09-22T01:09:47.995Z,18.63
2017-09-22T01:10:16.108Z,18.56
2017-09-22T01:10:44.050Z,18.53
2017-09-22T01:11:11.990Z,18.53
2017-09-22T01:11:39.926Z,18.6
2017-09-22T01:12:08.070Z,18.53
2017-09-22T01:12:36.017Z,18.49
2017-09-22T01:13:04.169Z,18.51
2017-09-22T01:13:32.100Z,18.51
2017-09-22T01:14:00.142Z,18.5
2017-09-22T01:14:27.993Z,18.49
2017-09-22T01:14:55.808Z,18.57
2017-09-22T01:15:23.622Z,18.44
2017-09-22T01:15:51.651Z,18.42
2017-09-22T01:16:19.780Z,18.51
2017-09-22T01:16:47.696Z,18.49
2017-09-22T01:17:15.740Z,18.34
2017-09-22T01:17:43.767Z,18.34
2017-09-22T01:18:11.923Z,18.34
2017-09-22T01:18:40.049Z,18.41
2017-09-22T01:19:07.989Z,18.34
2017-09-22T01:19:36.028Z,18.38
2017-09-22T01:20:04.069Z,18.29
2017-09-22T01:20:32.227Z,18.39
2017-09-22T01:21:00.157Z,18.26
2017-09-22T01:21:28.181Z,18.27
2017-09-22T01:21:56.325Z,18.32
2017-09-22T01:22:24.041Z,18.41
2017-09-22T01:22:51.964Z,18.38
2017-09-22T01:23:20.000Z,18.39
2017-09-22T01:23:48.039Z,18.38
2017-09-22T01:24:15.967Z,18.38
2017-09-22T01:24:44.000Z,18.36
2017-09-22T01:25:11.857Z,18.41
2017-09-22T01:25:39.896Z,18.41
2017-09-22T01:26:07.840Z,18.45
2017-09-22T01:26:35.761Z,18.41
2017-09-22T01:27:03.678Z,18.51
2017-09-22T01:27:31.745Z,18.42
2017-09-22T01:27:59.793Z,18.38
2017-09-22T01:28:27.620Z,18.38
2017-09-22T01:28:55.640Z,18.49
2017-09-22T01:29:23.658Z,18.39
2017-09-22T01:29:51.487Z,18.36
2017-09-22T01:30:19.547Z,18.39
2017-09-22T01:30:47.460Z,18.34
2017-09-22T01:31:15.419Z,18.35
2017-09-22T01:31:43.553Z,18.44
2017-09-22T01:32:11.943Z,18.47
2017-09-22T01:32:40.013Z,18.49
2017-09-22T01:33:08.037Z,18.51
2017-09-22T01:33:36.054Z,18.51
2017-09-22T01:34:04.194Z,18.51
2017-09-22T01:34:32.342Z,18.59
2017-09-22T01:35:00.385Z,18.53
2017-09-22T01:35:28.312Z,18.5
2017-09-22T01:35:56.369Z,18.57
2017-09-22T01:36:24.315Z,18.51
2017-09-22T01:36:52.356Z,18.61
2017-09-22T01:37:20.284Z,18.56
2017-09-22T01:37:47.923Z,18.51
2017-09-22T01:38:16.073Z,18.54
2017-09-22T01:38:43.901Z,18.6
2017-09-22T01:39:11.905Z,18.5
2017-09-22T01:39:39.815Z,18.5
2017-09-22T01:40:07.859Z,18.56
2017-09-22T01:40:35.689Z,18.6
2017-09-22T01:41:03.544Z,18.61
2017-09-22T01:41:31.567Z,18.49
2017-09-22T01:41:59.427Z,18.6
2017-09-22T01:42:27.653Z,18.57
2017-09-22T01:42:55.585Z,18.61
2017-09-22T01:43:23.624Z,18.63
2017-09-22T01:43:51.555Z,18.5
2017-09-22T01:44:19.683Z,18.6
2017-09-22T01:44:47.725Z,18.53
2017-09-22T01:45:15.751Z,18.56
2017-09-22T01:45:43.591Z,18.59
2017-09-22T01:46:11.721Z,18.5
2017-09-22T01:46:39.636Z,18.57
2017-09-22T01:47:07.568Z,18.49
2017-09-22T01:47:35.928Z,18.51
2017-09-22T01:48:03.976Z,18.5
2017-09-22T01:48:31.907Z,18.53
2017-09-22T01:48:59.841Z,18.56
2017-09-22T01:49:27.979Z,18.5
2017-09-22T01:49:56.094Z,18.56
2017-09-22T01:50:24.227Z,18.6
2017-09-22T01:50:52.276Z,18.61
2017-09-22T01:51:20.321Z,18.56
2017-09-22T01:51:48.165Z,18.57
2017-09-22T01:52:16.273Z,18.63
2017-09-22T01:52:44.146Z,18.6
2017-09-22T01:53:12.189Z,18.54
2017-09-22T01:53:40.229Z,18.59
2017-09-22T01:54:08.400Z,18.59
2017-09-22T01:54:36.419Z,18.45
2017-09-22T01:55:04.523Z,18.5
2017-09-22T01:55:32.537Z,18.49
2017-09-22T01:56:00.568Z,18.57
2017-09-22T01:56:28.695Z,18.5
2017-09-22T01:56:56.831Z,18.51
2017-09-22T01:57:24.956Z,18.49
2017-09-22T01:57:52.999Z,18.57
2017-09-22T01:58:21.129Z,18.49
2017-09-22T01:58:49.276Z,18.5
2017-09-22T01:59:17.207Z,18.56
2017-09-22T01:59:45.237Z,18.53
2017-09-22T02:00:13.183Z,18.54
2017-09-22T02:00:41.318Z,18.39
2017-09-22T02:01:09.173Z,18.45
2017-09-22T02:01:37.197Z,18.54
2017-09-22T02:02:05.310Z,18.44
2017-09-22T02:02:33.231Z,18.5
2017-09-22T02:03:01.270Z,18.53
2017-09-22T02:03:29.205Z,18.45
2017-09-22T02:03:57.252Z,18.51
2017-09-22T02:04:25.417Z,18.36
2017-09-22T02:04:53.426Z,18.41
2017-09-22T02:05:21.576Z,18.36
2017-09-22T02:05:49.482Z,18.38
2017-09-22T02:06:17.530Z,18.38
2017-09-22T02:06:45.696Z,18.41
2017-09-22T02:07:13.601Z,18.31
2017-09-22T02:07:41.735Z,18.31
2017-09-22T02:08:09.772Z,18.31
2017-09-22T02:08:37.817Z,18.29
2017-09-22T02:09:05.797Z,18.29
2017-09-22T02:09:33.743Z,18.27
2017-09-22T02:10:01.671Z,18.35
2017-09-22T02:10:29.577Z,18.29
2017-09-22T02:10:57.720Z,18.31
2017-09-22T02:11:25.564Z,18.24
2017-09-22T02:11:53.684Z,18.26
2017-09-22T02:12:21.509Z,18.24
2017-09-22T02:12:49.597Z,18.23
2017-09-22T02:13:17.646Z,18.23
2017-09-22T02:13:45.677Z,18.23
2017-09-22T02:14:13.699Z,18.24
2017-09-22T02:14:41.641Z,18.17
2017-09-22T02:15:09.804Z,18.13
2017-09-22T02:15:37.733Z,18.13
2017-09-22T02:16:05.685Z,18.05
2017-09-22T02:16:33.704Z,18.1
2017-09-22T02:17:01.621Z,18.08
2017-09-22T02:17:29.639Z,18.06
2017-09-22T02:17:57.659Z,18.05
2017-09-22T02:18:25.566Z,18.1
2017-09-22T02:18:53.698Z,18.05
2017-09-22T02:19:21.754Z,18.11
2017-09-22T02:19:49.892Z,18.06
2017-09-22T02:20:17.941Z,18.1
2017-09-22T02:20:46.004Z,18.1
2017-09-22T02:21:14.061Z,18.11
2017-09-22T02:21:42.030Z,18.1
2017-09-22T02:22:10.059Z,18.13
2017-09-22T02:22:38.108Z,18.14
2017-09-22T02:23:06.139Z,18.13
2017-09-22T02:23:34.180Z,18.17
2017-09-22T02:24:02.112Z,18.11
2017-09-22T02:24:30.156Z,18.16
2017-09-22T02:24:58.093Z,18.14
2017-09-22T02:25:25.889Z,18.08
2017-09-22T02:25:53.902Z,18.05
2017-09-22T02:26:22.024Z,17.99
2017-09-22T02:26:50.194Z,18.11
2017-09-22T02:27:18.328Z,18.02
2017-09-22T02:27:46.446Z,18.1
2017-09-22T02:28:14.277Z,18.13
2017-09-22T02:28:42.214Z,18.11
2017-09-22T02:29:10.163Z,18.11
2017-09-22T02:29:38.000Z,18.1
2017-09-22T02:30:05.805Z,18.16
2017-09-22T02:30:33.926Z,18.14
2017-09-22T02:31:02.027Z,18.14
2017-09-22T02:31:29.972Z,18.08
2017-09-22T02:31:58.089Z,18.13
2017-09-22T02:32:26.106Z,18.16
2017-09-22T02:32:54.262Z,18.13
2017-09-22T02:33:22.428Z,18.14
2017-09-22T02:33:50.386Z,18.08
2017-09-22T02:34:18.309Z,18.08
2017-09-22T02:34:46.247Z,18.13
2017-09-22T02:35:14.382Z,18.08
2017-09-22T02:35:42.309Z,18.08
2017-09-22T02:36:10.425Z,17.98
2017-09-22T02:36:38.568Z,18.11
2017-09-22T02:37:06.685Z,18.02
2017-09-22T02:37:34.842Z,18.08
2017-09-22T02:38:03.120Z,18.01
2017-09-22T02:38:31.033Z,18.08
2017-09-22T02:38:58.965Z,18.08
2017-09-22T02:39:27.097Z,18.02
2017-09-22T02:39:55.137Z,17.96
2017-09-22T02:40:23.184Z,17.94
2017-09-22T02:40:51.183Z,17.95
2017-09-22T02:41:19.237Z,17.99
2017-09-22T02:41:47.253Z,17.9
2017-09-22T02:42:15.185Z,17.86
2017-09-22T02:42:43.119Z,17.87
2017-09-22T02:43:11.160Z,17.87
2017-09-22T02:43:39.005Z,17.9
2017-09-22T02:44:06.860Z,17.81
2017-09-22T02:44:34.991Z,17.9
2017-09-22T02:45:03.133Z,17.87
2017-09-22T02:45:31.148Z,17.92
2017-09-22T02:45:59.270Z,17.88
2017-09-22T02:46:27.411Z,17.84
2017-09-22T02:46:55.448Z,17.81
2017-09-22T02:47:23.373Z,17.83
2017-09-22T02:47:51.611Z,17.81
2017-09-22T02:48:19.464Z,17.8
2017-09-22T02:48:47.593Z,17.8
2017-09-22T02:49:15.635Z,17.94
2017-09-22T02:49:43.574Z,17.83
2017-09-22T02:50:11.719Z,17.9
2017-09-22T02:50:39.777Z,17.92
2017-09-22T02:51:07.486Z,17.86
2017-09-22T02:51:35.514Z,17.87
2017-09-22T02:52:03.327Z,17.81
2017-09-22T02:52:31.244Z,17.8
2017-09-22T02:52:59.322Z,17.92
2017-09-22T02:53:27.263Z,17.9
2017-09-22T02:53:55.110Z,17.88
2017-09-22T02:54:23.142Z,17.83
2017-09-22T02:54:51.291Z,17.79
2017-09-22T02:55:19.319Z,17.76
2017-09-22T02:55:47.255Z,17.76
2017-09-22T02:56:15.193Z,17.73
2017-09-22T02:56:43.234Z,17.63
2017-09-22T02:57:11.253Z,17.69
2017-09-22T02:57:39.254Z,17.66
2017-09-22T02:58:07.518Z,17.62
2017-09-22T02:58:35.644Z,17.76
2017-09-22T02:59:03.674Z,17.65
2017-09-22T02:59:31.621Z,17.76
2017-09-22T02:59:59.653Z,17.65
2017-09-22T03:00:27.568Z,17.79
2017-09-22T03:00:55.609Z,17.86
2017-09-22T03:01:23.657Z,17.88
2017-09-22T03:01:51.504Z,17.9
2017-09-22T03:02:19.437Z,17.88
2017-09-22T03:02:47.587Z,17.86
2017-09-22T03:03:15.565Z,17.9
2017-09-22T03:03:43.370Z,17.88
2017-09-22T03:04:11.191Z,17.99
2017-09-22T03:04:39.311Z,17.95
2017-09-22T03:05:07.445Z,17.94
2017-09-22T03:05:35.493Z,17.96
2017-09-22T03:06:03.542Z,17.95
2017-09-22T03:06:31.503Z,18.06
2017-09-22T03:06:59.353Z,18.08
2017-09-22T03:07:27.293Z,18.03
2017-09-22T03:07:55.323Z,18.06
2017-09-22T03:08:23.551Z,18.08
2017-09-22T03:08:51.465Z,18.05
2017-09-22T03:09:19.533Z,18.03
2017-09-22T03:09:47.283Z,17.98
2017-09-22T03:10:15.421Z,18.01
2017-09-22T03:10:43.552Z,17.99
2017-09-22T03:11:11.467Z,17.99
2017-09-22T03:11:39.488Z,18.01
2017-09-22T03:12:07.523Z,17.9
2017-09-22T03:12:35.554Z,17.98
2017-09-22T03:13:03.458Z,17.95
2017-09-22T03:13:31.492Z,17.98
2017-09-22T03:13:59.609Z,17.87
2017-09-22T03:14:27.550Z,17.92
2017-09-22T03:14:55.291Z,17.9
2017-09-22T03:15:23.272Z,17.94
2017-09-22T03:15:51.183Z,17.83
2017-09-22T03:16:19.115Z,17.86
2017-09-22T03:16:46.927Z,17.86
2017-09-22T03:17:14.767Z,17.86
2017-09-22T03:17:42.802Z,17.84
2017-09-22T03:18:10.922Z,17.84
2017-09-22T03:18:38.732Z,17.84
2017-09-22T03:19:06.572Z,17.87
2017-09-22T03:19:34.617Z,17.94
2017-09-22T03:20:02.749Z,17.92
2017-09-22T03:20:30.670Z,17.94
2017-09-22T03:20:58.681Z,17.81
2017-09-22T03:21:26.824Z,17.88
2017-09-22T03:21:54.825Z,17.9
2017-09-22T03:22:22.835Z,17.86
2017-09-22T03:22:50.788Z,17.94
2017-09-22T03:23:18.938Z,17.86
2017-09-22T03:23:46.760Z,17.84
2017-09-22T03:24:14.594Z,17.88
2017-09-22T03:24:42.616Z,17.9
2017-09-22T03:25:10.627Z,17.86
2017-09-22T03:25:38.566Z,17.87
2017-09-22T03:26:06.734Z,17.87
2017-09-22T03:26:34.543Z,17.9
2017-09-22T03:27:02.391Z,17.84
2017-09-22T03:27:30.228Z,17.87
2017-09-22T03:27:58.346Z,17.87
2017-09-22T03:28:26.382Z,17.84
2017-09-22T03:28:54.288Z,17.86
2017-09-22T03:29:22.346Z,17.94
2017-09-22T03:29:50.380Z,17.87
2017-09-22T03:30:18.238Z,17.84
2017-09-22T03:30:46.064Z,17.88
2017-09-22T03:31:13.804Z,17.81
2017-09-22T03:31:41.840Z,17.79
2017-09-22T03:32:09.992Z,17.8
2017-09-22T03:32:38.005Z,17.92
2017-09-22T03:33:06.138Z,17.83
2017-09-22T03:33:34.275Z,17.79
2017-09-22T03:34:02.122Z,17.9
2017-09-22T03:34:30.247Z,17.8
2017-09-22T03:34:58.207Z,17.87
2017-09-22T03:35:26.358Z,17.9
2017-09-22T03:35:54.495Z,17.88
2017-09-22T03:36:22.432Z,17.86
2017-09-22T03:36:50.379Z,17.81
2017-09-22T03:37:18.408Z,17.88
2017-09-22T03:37:46.046Z,17.86
2017-09-22T03:38:14.082Z,17.92
2017-09-22T03:38:41.999Z,17.81
2017-09-22T03:39:09.957Z,17.83
2017-09-22T03:39:38.024Z,17.79
2017-09-22T03:40:06.083Z,17.8
2017-09-22T03:40:34.233Z,17.83
2017-09-22T03:41:02.053Z,17.8
2017-09-22T03:41:30.102Z,17.79
2017-09-22T03:41:58.057Z,17.8
2017-09-22T03:42:26.000Z,17.84
2017-09-22T03:42:54.136Z,17.79
2017-09-22T03:43:22.377Z,17.74
2017-09-22T03:43:50.312Z,17.84
2017-09-22T03:44:18.247Z,17.79
2017-09-22T03:44:46.180Z,17.77
2017-09-22T03:45:14.054Z,17.71
2017-09-22T03:45:42.106Z,17.77
2017-09-22T03:46:10.106Z,17.79
2017-09-22T03:46:38.232Z,17.77
2017-09-22T03:47:06.242Z,17.73
2017-09-22T03:47:34.269Z,17.77
2017-09-22T03:48:02.325Z,17.77
2017-09-22T03:48:30.376Z,17.74
2017-09-22T03:48:58.546Z,17.74
2017-09-22T03:49:26.686Z,17.81
2017-09-22T03:49:54.805Z,17.71
2017-09-22T03:50:22.941Z,17.63
2017-09-22T03:50:50.977Z,17.62
2017-09-22T03:51:19.010Z,17.73
2017-09-22T03:51:47.168Z,17.66
2017-09-22T03:52:15.126Z,17.65
2017-09-22T03:52:43.045Z,17.66
2017-09-22T03:53:11.085Z,17.71
2017-09-22T03:53:39.287Z,17.62
2017-09-22T03:54:07.318Z,17.76
2017-09-22T03:54:35.449Z,17.65
2017-09-22T03:55:03.394Z,17.65
2017-09-22T03:55:31.428Z,17.65
2017-09-22T03:55:59.367Z,17.68
2017-09-22T03:56:27.193Z,17.66
2017-09-22T03:56:55.257Z,17.71
2017-09-22T03:57:23.118Z,17.6
2017-09-22T03:57:51.051Z,17.66
2017-09-22T03:58:19.015Z,17.73
2017-09-22T03:58:47.251Z,17.6
2017-09-22T03:59:15.333Z,17.73
2017-09-22T03:59:43.468Z,17.62
2017-09-22T04:00:11.416Z,17.62
2017-09-22T04:00:39.457Z,17.6
2017-09-22T04:01:07.498Z,17.73
2017-09-22T04:01:35.323Z,17.66
2017-09-22T04:02:03.065Z,17.69
2017-09-22T04:02:30.884Z,17.76
2017-09-22T04:02:58.712Z,17.65
2017-09-22T04:03:26.971Z,17.63
2017-09-22T04:03:54.906Z,17.66
2017-09-22T04:04:22.848Z,17.73
2017-09-22T04:04:50.701Z,17.66
2017-09-22T04:05:18.606Z,17.66
2017-09-22T04:05:46.546Z,17.81
2017-09-22T04:06:14.478Z,17.6
2017-09-22T04:06:42.510Z,17.66
2017-09-22T04:07:10.610Z,17.63
2017-09-22T04:07:38.538Z,17.77
2017-09-22T04:08:06.378Z,17.73
2017-09-22T04:08:34.618Z,17.71
2017-09-22T04:09:02.681Z,17.65
2017-09-22T04:09:30.721Z,17.66
2017-09-22T04:09:58.671Z,17.77
2017-09-22T04:10:27.425Z,17.66
2017-09-22T04:10:55.516Z,17.68
2017-09-22T04:11:23.844Z,17.74
2017-09-22T04:11:52.070Z,17.77
2017-09-22T04:12:20.186Z,17.74
2017-09-22T04:12:48.213Z,17.68
2017-09-22T04:13:16.405Z,17.81
2017-09-22T04:13:44.424Z,17.69
2017-09-22T04:14:12.436Z,17.8
2017-09-22T04:14:40.538Z,17.8
2017-09-22T04:15:08.558Z,17.74
2017-09-22T04:15:36.560Z,17.84
2017-09-22T04:16:04.561Z,17.77
2017-09-22T04:16:32.501Z,17.86
2017-09-22T04:17:00.646Z,17.9
2017-09-22T04:17:28.683Z,17.84
2017-09-22T04:17:56.611Z,17.86
2017-09-22T04:18:24.726Z,17.8
2017-09-22T04:18:52.866Z,17.8
2017-09-22T04:19:20.823Z,17.77
2017-09-22T04:19:48.879Z,17.77
2017-09-22T04:20:16.910Z,17.73
2017-09-22T04:20:45.079Z,17.65
2017-09-22T04:21:13.034Z,17.74
2017-09-22T04:21:40.873Z,17.62
2017-09-22T04:22:09.021Z,17.62
2017-09-22T04:22:36.979Z,17.66
2017-09-22T04:23:05.095Z,17.63
2017-09-22T04:23:33.042Z,17.68
2017-09-22T04:24:01.063Z,17.6
2017-09-22T04:24:28.979Z,17.5
2017-09-22T04:24:57.040Z,17.6
2017-09-22T04:25:24.948Z,17.55
2017-09-22T04:25:52.990Z,17.54
2017-09-22T04:26:20.825Z,17.54
2017-09-22T04:26:48.859Z,17.54
2017-09-22T04:27:17.016Z,17.52
2017-09-22T04:27:44.933Z,17.55
2017-09-22T04:28:12.861Z,17.54
2017-09-22T04:28:41.004Z,17.49
2017-09-22T04:29:09.020Z,17.5
2017-09-22T04:29:37.044Z,17.55
2017-09-22T04:30:05.076Z,17.57
2017-09-22T04:30:33.193Z,17.54
2017-09-22T04:31:01.325Z,17.5
2017-09-22T04:31:29.361Z,17.49
2017-09-22T04:31:57.364Z,17.45
2017-09-22T04:32:25.378Z,17.54
2017-09-22T04:32:53.316Z,17.52
2017-09-22T04:33:21.047Z,17.46
2017-09-22T04:33:49.065Z,17.43
2017-09-22T04:34:17.080Z,17.43
2017-09-22T04:34:45.023Z,17.46
2017-09-22T04:35:13.156Z,17.52
2017-09-22T04:35:41.190Z,17.49
2017-09-22T04:36:09.148Z,17.55
2017-09-22T04:36:36.965Z,17.49
2017-09-22T04:37:05.018Z,17.49
2017-09-22T04:37:32.854Z,17.5
2017-09-22T04:38:00.893Z,17.5
2017-09-22T04:38:28.922Z,17.52
2017-09-22T04:38:57.153Z,17.47
2017-09-22T04:39:25.222Z,17.52
2017-09-22T04:39:53.212Z,17.49
2017-09-22T04:40:21.334Z,17.46
2017-09-22T04:40:49.365Z,17.54
2017-09-22T04:41:17.284Z,17.49
2017-09-22T04:41:45.418Z,17.5
2017-09-22T04:42:13.483Z,17.49
2017-09-22T04:42:41.524Z,17.47
2017-09-22T04:43:09.540Z,17.49
2017-09-22T04:43:37.546Z,17.57
2017-09-22T04:44:05.763Z,17.54
2017-09-22T04:44:33.878Z,17.5
2017-09-22T04:45:01.904Z,17.42
2017-09-22T04:45:29.973Z,17.46
2017-09-22T04:45:57.983Z,17.54
2017-09-22T04:46:25.924Z,17.49
2017-09-22T04:46:53.952Z,17.4
2017-09-22T04:47:21.912Z,17.43
2017-09-22T04:47:49.944Z,17.52
2017-09-22T04:48:17.887Z,17.45
2017-09-22T04:48:45.904Z,17.4
2017-09-22T04:49:13.844Z,17.35
2017-09-22T04:49:41.898Z,17.3
2017-09-22T04:50:09.810Z,17.38
2017-09-22T04:50:37.746Z,17.36
2017-09-22T04:51:05.776Z,17.31
2017-09-22T04:51:33.912Z,17.31
2017-09-22T04:52:01.838Z,17.32
2017-09-22T04:52:29.893Z,17.35
2017-09-22T04:52:58.028Z,17.38
2017-09-22T04:53:26.161Z,17.42
2017-09-22T04:53:54.188Z,17.4
2017-09-22T04:54:22.260Z,17.35
2017-09-22T04:54:50.315Z,17.42
2017-09-22T04:55:18.440Z,17.38
2017-09-22T04:55:46.580Z,17.39
2017-09-22T04:56:14.723Z,17.35
2017-09-22T04:56:42.744Z,17.38
2017-09-22T04:57:10.770Z,17.32
2017-09-22T04:57:38.904Z,17.39
2017-09-22T04:58:06.937Z,17.32
2017-09-22T04:58:34.861Z,17.31
2017-09-22T04:59:03.146Z,17.32
2017-09-22T04:59:31.146Z,17.28
2017-09-22T04:59:59.292Z,17.28
2017-09-22T05:00:27.332Z,17.32
2017-09-22T05:00:55.354Z,17.32
2017-09-22T05:01:23.472Z,17.28
2017-09-22T05:01:51.518Z,17.3
2017-09-22T05:02:19.466Z,17.2
2017-09-22T05:02:47.597Z,17.22
2017-09-22T05:03:15.544Z,17.27
2017-09-22T05:03:43.355Z,17.17
2017-09-22T05:04:11.385Z,17.15
2017-09-22T05:04:39.220Z,17.15
2017-09-22T05:05:07.057Z,17.1
2017-09-22T05:05:35.068Z,17.18
2017-09-22T05:06:03.200Z,17.12
2017-09-22T05:06:31.133Z,17.17
2017-09-22T05:06:59.188Z,17.18
2017-09-22T05:07:27.139Z,17.17
2017-09-22T05:07:55.226Z,17.1
2017-09-22T05:08:23.337Z,17.1
2017-09-22T05:08:51.380Z,17.07
2017-09-22T05:09:19.513Z,17.1
2017-09-22T05:09:47.568Z,17.12
2017-09-22T05:10:15.495Z,17.07
2017-09-22T05:10:43.529Z,17.09
2017-09-22T05:11:11.458Z,17.05
2017-09-22T05:11:39.417Z,17.09
2017-09-22T05:12:07.562Z,17.06
2017-09-22T05:12:35.479Z,17
2017-09-22T05:13:03.601Z,16.99
2017-09-22T05:13:31.578Z,17.03
2017-09-22T05:13:59.626Z,17
2017-09-22T05:14:27.832Z,17.05
2017-09-22T05:14:55.867Z,17.06
2017-09-22T05:15:23.907Z,17.07
2017-09-22T05:15:51.831Z,17.07
2017-09-22T05:16:19.866Z,17.03
2017-09-22T05:16:47.800Z,17
2017-09-22T05:17:15.871Z,16.99
2017-09-22T05:17:43.803Z,17.02
2017-09-22T05:18:11.643Z,17.02
2017-09-22T05:18:39.697Z,16.95
2017-09-22T05:19:07.836Z,16.94
2017-09-22T05:19:35.869Z,17.05
2017-09-22T05:20:03.910Z,17.05
2017-09-22T05:20:32.074Z,16.95
2017-09-22T05:21:00.201Z,16.99
2017-09-22T05:21:28.105Z,16.99
2017-09-22T05:21:55.840Z,17
2017-09-22T05:22:23.873Z,16.91
2017-09-22T05:22:52.013Z,17.05
2017-09-22T05:23:20.071Z,17.05
2017-09-22T05:23:47.987Z,17.06
2017-09-22T05:24:16.218Z,17.1
2017-09-22T05:24:44.243Z,17.18
2017-09-22T05:25:12.277Z,17.24
2017-09-22T05:25:40.303Z,17.2
2017-09-22T05:26:08.423Z,17.27
2017-09-22T05:26:36.487Z,17.3
2017-09-22T05:27:04.617Z,17.35
2017-09-22T05:27:32.751Z,17.39
2017-09-22T05:28:00.891Z,17.43
2017-09-22T05:28:29.034Z,17.45
2017-09-22T05:28:57.039Z,17.45
2017-09-22T05:29:25.193Z,17.45
2017-09-22T05:29:53.202Z,17.46
2017-09-22T05:30:21.225Z,17.5
2017-09-22T05:30:49.077Z,17.43
2017-09-22T05:31:17.125Z,17.46
2017-09-22T05:31:44.948Z,17.54
2017-09-22T05:32:12.980Z,17.5
2017-09-22T05:32:40.696Z,17.49
2017-09-22T05:33:08.753Z,17.49
2017-09-22T05:33:36.868Z,17.55
2017-09-22T05:34:04.898Z,17.45
2017-09-22T05:34:33.024Z,17.45
2017-09-22T05:35:01.076Z,17.46
2017-09-22T05:35:29.118Z,17.52
2017-09-22T05:35:57.064Z,17.54
2017-09-22T05:36:25.200Z,17.52
2017-09-22T05:36:53.042Z,17.57
2017-09-22T05:37:20.882Z,17.47
2017-09-22T05:37:48.824Z,17.54
2017-09-22T05:38:16.856Z,17.46
2017-09-22T05:38:44.792Z,17.46
2017-09-22T05:39:12.540Z,17.5
2017-09-22T05:39:40.662Z,17.45
2017-09-22T05:40:08.509Z,17.55
2017-09-22T05:40:36.169Z,17.49
2017-09-22T05:41:04.109Z,17.57
2017-09-22T05:41:31.977Z,17.5
2017-09-22T05:42:00.023Z,17.45
2017-09-22T05:42:27.867Z,17.42
2017-09-22T05:42:55.809Z,17.4
2017-09-22T05:43:23.956Z,17.38
2017-09-22T05:43:52.112Z,17.38
2017-09-22T05:44:20.252Z,17.42
2017-09-22T05:44:48.170Z,17.38
2017-09-22T05:45:16.174Z,17.43
2017-09-22T05:45:44.312Z,17.35
2017-09-22T05:46:12.186Z,17.35
2017-09-22T05:46:40.053Z,17.35
2017-09-22T05:47:08.211Z,17.3
2017-09-22T05:47:36.169Z,17.32
2017-09-22T05:48:04.204Z,17.22
2017-09-22T05:48:32.245Z,17.25
2017-09-22T05:49:00.172Z,17.22
2017-09-22T05:49:28.391Z,17.25
2017-09-22T05:49:56.443Z,17.12
2017-09-22T05:50:24.273Z,17.18
2017-09-22T05:50:52.347Z,17.13
2017-09-22T05:51:20.277Z,17.13
2017-09-22T05:51:48.304Z,17.13
2017-09-22T05:52:16.207Z,17.18
2017-09-22T05:52:44.190Z,17.15
2017-09-22T05:53:12.228Z,17.12
2017-09-22T05:53:40.363Z,17.13
2017-09-22T05:54:08.507Z,17.12
2017-09-22T05:54:36.429Z,17.15
2017-09-22T05:55:04.454Z,17.13
2017-09-22T05:55:32.478Z,17.06
2017-09-22T05:56:00.472Z,17.07
2017-09-22T05:56:28.422Z,17.07
2017-09-22T05:56:56.582Z,17.1
2017-09-22T05:57:24.610Z,17.17
2017-09-22T05:57:52.648Z,17.18
2017-09-22T05:58:20.602Z,17.18
2017-09-22T05:58:48.542Z,17.2
2017-09-22T05:59:16.573Z,17.22
2017-09-22T05:59:44.707Z,17.24
2017-09-22T06:00:12.618Z,17.35
2017-09-22T06:00:40.549Z,17.35
2017-09-22T06:01:08.316Z,17.35
2017-09-22T06:01:36.279Z,17.35
2017-09-22T06:02:04.094Z,17.32
2017-09-22T06:02:31.934Z,17.2